Time;durP1;ratioP1;P1;durP2;ratioP2;P2;SDS_P1;SDS_P2;PMS_P1;PMS_P2;Temp;Humidity;BMP_temperature;BMP_pressure;BME280_temperature;BME280_humidity;BME280_pressure;Samples;Min_cycle;Max_cycle;Signal;HPM_P1;HPM_P2
2022/08/27 00:00:43;;;;;;;20.63;12.30;;;564.10;2432.00;;;;;;5042340;28;20101;-79
2022/08/27 00:03:09;;;;;;;20.67;12.48;;;564.00;2432.00;;;;;;5042573;28;20025;-79
2022/08/27 00:05:35;;;;;;;21.00;12.82;;;564.00;2432.00;;;;;;5046238;28;20030;-77
2022/08/27 00:08:04;;;;;;;24.95;12.77;;;564.00;2432.00;;;;;;5069137;28;20040;-79
2022/08/27 00:10:30;;;;;;;20.52;12.20;;;563.80;2432.00;;;;;;5071040;28;20053;-78
2022/08/27 00:12:56;;;;;;;23.70;12.48;;;563.90;2432.00;;;;;;5041557;28;20035;-81
2022/08/27 00:15:23;;;;;;;28.20;13.32;;;563.90;2432.00;;;;;;5046590;28;20390;-78
2022/08/27 00:17:49;;;;;;;21.80;12.50;;;563.90;2432.00;;;;;;5039985;28;20076;-78
2022/08/27 00:20:17;;;;;;;21.95;13.05;;;563.90;2432.00;;;;;;5049482;28;20462;-78
2022/08/27 00:22:43;;;;;;;19.25;13.70;;;563.90;2432.00;;;;;;5052042;28;20032;-78
2022/08/27 00:25:11;;;;;;;22.77;14.77;;;563.70;2432.00;;;;;;5044177;28;20165;-80
2022/08/27 00:27:37;;;;;;;25.58;13.75;;;563.80;2432.00;;;;;;5038924;28;20052;-78
2022/08/27 00:30:09;;;;;;;17.70;12.55;;;563.60;2432.00;;;;;;5071809;28;20025;-79
2022/08/27 00:32:35;;;;;;;27.17;14.15;;;563.50;2432.00;;;;;;5041614;28;20026;-80
2022/08/27 00:35:01;;;;;;;25.20;13.02;;;563.50;2432.00;;;;;;5072611;28;20048;-79
2022/08/27 00:37:27;;;;;;;19.08;13.63;;;563.50;2432.00;;;;;;5043376;28;20076;-80
2022/08/27 00:39:53;;;;;;;22.25;12.88;;;563.60;2432.00;;;;;;5037309;28;20104;-79
2022/08/27 00:42:18;;;;;;;22.30;13.90;;;563.50;2432.00;;;;;;5042548;28;20037;-80
2022/08/27 00:44:44;;;;;;;25.17;13.20;;;563.30;2432.00;;;;;;5040790;28;20107;-80
2022/08/27 00:47:19;;;;;;;30.40;13.13;;;563.30;2432.00;;;;;;5072875;28;20368;-79
2022/08/27 00:49:51;;;;;;;21.42;13.02;;;563.50;2432.00;;;;;;5053196;28;20116;-79
2022/08/27 00:52:28;;;;;;;28.60;13.88;;;563.50;2432.00;;;;;;5052343;28;20787;-79
2022/08/27 00:55:01;;;;;;;22.17;13.13;;;563.30;2432.00;;;;;;5039306;28;20440;-82
2022/08/27 00:57:28;;;;;;;20.88;13.52;;;538.50;2406.40;;;;;;5046642;28;20033;-78
2022/08/27 00:59:54;;;;;;;19.25;12.20;;;538.50;2406.40;;;;;;5071061;28;20025;-80
2022/08/27 01:02:20;;;;;;;19.88;13.02;;;563.20;2432.00;;;;;;5036015;28;20029;-77
2022/08/27 01:04:55;;;;;;;20.35;12.48;;;538.50;2406.40;;;;;;5036026;28;20036;-78
2022/08/27 01:07:23;;;;;;;18.10;11.82;;;563.30;2432.00;;;;;;5037068;28;20096;-79
2022/08/27 01:09:51;;;;;;;21.45;12.13;;;563.40;2432.00;;;;;;5073454;28;20036;-78
2022/08/27 01:12:17;;;;;;;20.23;12.40;;;563.50;2432.00;;;;;;5038140;28;20441;-79
2022/08/27 01:14:44;;;;;;;21.35;12.20;;;563.50;2432.00;;;;;;5037980;28;20037;-79
2022/08/27 01:17:11;;;;;;;19.25;12.15;;;563.50;2432.00;;;;;;5039952;28;20029;-79
2022/08/27 01:19:42;;;;;;;23.13;12.82;;;563.40;2432.00;;;;;;5043689;28;20025;-78
2022/08/27 01:22:42;;;;;;;17.90;12.60;;;563.30;2432.00;;;;;;5036376;28;20025;-78
2022/08/27 01:25:12;;;;;;;20.70;12.63;;;538.50;2406.40;;;;;;5052534;28;20025;-81
2022/08/27 01:27:39;;;;;;;25.83;12.98;;;538.50;2406.40;;;;;;5051324;28;20049;-78
2022/08/27 01:30:08;;;;;;;22.08;13.70;;;538.50;2406.40;;;;;;5034235;28;20095;-78
2022/08/27 01:32:35;;;;;;;18.52;12.13;;;563.20;2432.00;;;;;;5036792;28;20475;-78
2022/08/27 01:35:04;;;;;;;22.73;13.73;;;538.50;2406.40;;;;;;5035652;28;20073;-78
2022/08/27 01:37:30;;;;;;;26.20;12.68;;;538.40;2406.40;;;;;;5037067;28;20033;-78
2022/08/27 01:39:57;;;;;;;19.60;13.27;;;538.50;2406.40;;;;;;5037660;28;20683;-77
2022/08/27 01:42:50;;;;;;;31.38;13.20;;;563.20;2432.00;;;;;;5072201;28;20147;-80
2022/08/27 01:45:24;;;;;;;19.52;12.10;;;538.50;2406.40;;;;;;5039008;28;20033;-79
2022/08/27 01:47:51;;;;;;;22.85;11.88;;;538.50;2406.40;;;;;;5038997;28;20073;-78
2022/08/27 01:50:27;;;;;;;21.20;12.77;;;538.50;2406.40;;;;;;5040119;28;20029;-78
2022/08/27 01:52:55;;;;;;;20.65;12.23;;;538.50;2406.40;;;;;;5040449;28;20036;-78
2022/08/27 01:55:24;;;;;;;25.38;12.90;;;538.50;2406.40;;;;;;5036678;28;20477;-81
2022/08/27 01:57:51;;;;;;;19.65;13.30;;;538.50;2406.40;;;;;;5036694;28;20082;-79
2022/08/27 02:00:21;;;;;;;19.58;11.60;;;538.50;2406.40;;;;;;5066161;28;20410;-78
2022/08/27 02:02:47;;;;;;;22.75;12.43;;;538.50;2406.40;;;;;;5066261;28;20423;-79
2022/08/27 02:05:14;;;;;;;22.67;13.18;;;563.20;2432.00;;;;;;5035833;28;20057;-78
2022/08/27 02:07:40;;;;;;;24.15;12.70;;;538.50;2406.40;;;;;;5038621;28;20060;-79
2022/08/27 02:10:09;;;;;;;20.15;12.55;;;538.20;2406.40;;;;;;5035502;28;20017;-81
2022/08/27 02:12:34;;;;;;;17.45;12.52;;;538.40;2406.40;;;;;;5039163;28;20087;-78
2022/08/27 02:15:01;;;;;;;18.90;11.63;;;538.30;2406.40;;;;;;5067926;28;20498;-77
2022/08/27 02:17:27;;;;;;;19.65;12.18;;;538.50;2406.40;;;;;;5035926;28;20486;-78
2022/08/27 02:19:53;;;;;;;17.88;12.27;;;538.40;2406.40;;;;;;5041458;28;20028;-78
2022/08/27 02:22:19;;;;;;;25.02;13.43;;;538.20;2406.40;;;;;;5038509;28;20033;-77
2022/08/27 02:24:45;;;;;;;24.63;13.45;;;538.40;2406.40;;;;;;5037747;28;20033;-79
2022/08/27 02:27:11;;;;;;;16.52;12.52;;;538.40;2406.40;;;;;;5035332;28;20113;-77
2022/08/27 02:29:37;;;;;;;23.92;13.25;;;538.30;2406.40;;;;;;5037177;28;20067;-78
2022/08/27 02:32:03;;;;;;;20.67;14.48;;;538.30;2406.40;;;;;;5037431;28;20179;-78
2022/08/27 02:34:28;;;;;;;16.95;12.40;;;538.10;2406.40;;;;;;5071761;28;20060;-79
2022/08/27 02:36:54;;;;;;;20.10;13.63;;;538.10;2406.40;;;;;;5037001;28;20025;-79
2022/08/27 02:39:20;;;;;;;22.65;13.50;;;538.00;2406.40;;;;;;5035592;28;20037;-78
2022/08/27 02:41:47;;;;;;;21.90;13.23;;;538.00;2406.40;;;;;;5041522;28;20402;-77
2022/08/27 02:44:13;;;;;;;19.67;12.63;;;538.10;2406.40;;;;;;5041879;28;20394;-79
2022/08/27 02:46:40;;;;;;;20.20;12.88;;;538.10;2406.40;;;;;;5036404;28;20033;-78
2022/08/27 02:49:08;;;;;;;19.67;12.38;;;538.00;2406.40;;;;;;5034575;28;20037;-77
2022/08/27 02:51:34;;;;;;;21.30;12.23;;;538.00;2406.40;;;;;;5041619;28;20030;-80
2022/08/27 02:54:01;;;;;;;18.70;11.38;;;538.00;2406.40;;;;;;5068904;28;20487;-78
2022/08/27 02:56:27;;;;;;;20.40;13.30;;;538.00;2406.40;;;;;;5036241;28;20036;-78
2022/08/27 02:58:53;;;;;;;18.33;12.73;;;538.00;2406.40;;;;;;5034270;28;20026;-80
2022/08/27 03:01:19;;;;;;;21.05;12.13;;;538.00;2406.40;;;;;;5037996;28;20025;-78
2022/08/27 03:03:45;;;;;;;19.08;13.05;;;;;;;;;;5037430;28;20101;-78
2022/08/27 03:06:12;;;;;;;21.70;12.80;;;538.20;2406.40;;;;;;5032029;28;20410;-77
2022/08/27 03:08:38;;;;;;;24.65;14.10;;;538.10;2406.40;;;;;;5036444;28;20067;-79
2022/08/27 03:11:06;;;;;;;21.83;12.85;;;538.00;2406.40;;;;;;5070367;28;20053;-78
2022/08/27 03:13:36;;;;;;;22.65;13.35;;;;;;;;;;5067348;28;20063;-78
2022/08/27 03:16:03;;;;;;;20.58;13.80;;;538.20;2406.40;;;;;;5036998;28;20025;-78
2022/08/27 03:18:31;;;;;;;21.35;12.95;;;538.20;2406.40;;;;;;5037017;28;20029;-78
2022/08/27 03:20:59;;;;;;;22.50;13.55;;;537.60;2406.40;;;;;;5065332;28;20045;-78
2022/08/27 03:23:27;;;;;;;18.75;13.07;;;538.00;2406.40;;;;;;5036695;28;21749;-79
2022/08/27 03:25:56;;;;;;;20.65;13.40;;;538.00;2406.40;;;;;;5032338;28;20025;-77
2022/08/27 03:28:26;;;;;;;21.27;12.50;;;537.90;2406.40;;;;;;5035297;28;20038;-77
2022/08/27 03:31:00;;;;;;;26.65;14.05;;;538.00;2406.40;;;;;;5038883;28;20061;-79
2022/08/27 03:33:31;;;;;;;23.60;13.80;;;538.00;2406.40;;;;;;5050673;28;20076;-77
2022/08/27 03:35:58;;;;;;;21.20;13.50;;;538.00;2406.40;;;;;;5048681;28;20049;-78
2022/08/27 03:38:24;;;;;;;25.27;15.43;;;538.00;2406.40;;;;;;5072777;28;20487;-77
2022/08/27 03:40:51;;;;;;;23.65;13.23;;;538.00;2406.40;;;;;;5037804;28;20033;-77
2022/08/27 03:43:19;;;;;;;18.08;13.23;;;538.10;2406.40;;;;;;5034039;28;20029;-77
2022/08/27 03:45:46;;;;;;;22.15;13.27;;;537.80;2406.40;;;;;;5033752;28;20026;-78
2022/08/27 03:48:13;;;;;;;24.50;14.15;;;537.90;2406.40;;;;;;5039330;28;20033;-78
2022/08/27 03:50:41;;;;;;;24.77;14.93;;;512.90;2380.80;;;;;;5073869;28;20060;-80
2022/08/27 03:53:08;;;;;;;19.20;13.20;;;512.90;2380.80;;;;;;5040752;28;20107;-79
2022/08/27 03:55:34;;;;;;;21.83;14.40;;;512.80;2380.80;;;;;;5032785;28;20021;-79
2022/08/27 03:58:00;;;;;;;21.30;13.57;;;;;;;;;;5067936;28;20037;-77
2022/08/27 04:00:26;;;;;;;22.58;13.48;;;;;;;;;;5042352;28;20037;-79
2022/08/27 04:02:53;;;;;;;19.75;13.27;;;;;;;;;;5048304;28;20505;-77
2022/08/27 04:05:20;;;;;;;20.42;14.32;;;;;;;;;;5037961;28;20046;-78
2022/08/27 04:07:47;;;;;;;24.50;13.00;;;;;;;;;;5049379;28;20116;-79
2022/08/27 04:10:14;;;;;;;21.63;14.18;;;;;;;;;;5036282;28;20025;-79
2022/08/27 04:12:40;;;;;;;19.00;13.18;;;;;;;;;;5036864;28;20113;-79
2022/08/27 04:15:07;;;;;;;22.70;13.77;;;;;;;;;;5034609;28;20047;-77
2022/08/27 04:17:33;;;;;;;24.08;14.70;;;;;;;;;;5048154;28;20111;-77
2022/08/27 04:19:59;;;;;;;24.58;15.02;;;;;;;;;;5036657;28;20029;-78
2022/08/27 04:22:25;;;;;;;23.33;13.25;;;;;;;;;;5041145;28;20026;-79
2022/08/27 04:24:52;;;;;;;20.90;13.52;;;;;;;;;;5038861;28;20026;-77
2022/08/27 04:27:19;;;;;;;18.52;13.88;;;;;;;;;;5038902;28;20454;-79
2022/08/27 04:29:45;;;;;;;22.95;14.13;;;;;;;;;;5047273;28;20037;-78
2022/08/27 04:32:11;;;;;;;23.42;14.23;;;;;;;;;;5046232;28;20021;-79
2022/08/27 04:34:37;;;;;;;26.40;14.13;;;;;;;;;;5054356;28;20052;-80
2022/08/27 04:37:04;;;;;;;21.45;12.80;;;;;;;;;;5047176;28;20036;-79
2022/08/27 04:39:31;;;;;;;29.88;15.13;;;;;;;;;;5034985;28;20398;-78
2022/08/27 04:41:58;;;;;;;21.92;14.35;;;;;;;;;;5039734;28;20496;-78
2022/08/27 04:44:25;;;;;;;19.20;13.50;;;;;;;;;;5042405;28;20098;-79
2022/08/27 04:46:55;;;;;;;22.45;13.55;;;;;;;;;;5039413;28;20090;-79
2022/08/27 04:49:21;;;;;;;24.38;14.70;;;;;;;;;;5035470;28;20848;-78
2022/08/27 04:51:47;;;;;;;20.33;13.73;;;;;;;;;;5033699;28;20471;-80
2022/08/27 04:54:13;;;;;;;23.00;14.57;;;;;;;;;;5036254;28;20104;-78
2022/08/27 04:56:39;;;;;;;22.85;14.30;;;;;;;;;;5037072;28;20531;-79
2022/08/27 04:59:08;;;;;;;23.15;14.48;;;512.90;2380.80;;;;;;5035702;28;20515;-80
2022/08/27 05:01:35;;;;;;;24.27;14.77;;;512.80;2380.80;;;;;;5072635;28;20033;-78
2022/08/27 05:04:02;;;;;;;24.73;15.55;;;512.60;2380.80;;;;;;5069727;28;20079;-77
2022/08/27 05:06:27;;;;;;;25.67;15.32;;;512.60;2380.80;;;;;;5035741;28;20034;-77
2022/08/27 05:08:54;;;;;;;21.40;14.27;;;512.50;2380.80;;;;;;5036106;28;20040;-81
2022/08/27 05:11:22;;;;;;;19.80;14.00;;;512.80;2380.80;;;;;;5073238;28;20596;-78
2022/08/27 05:13:49;;;;;;;26.38;15.38;;;512.70;2380.80;;;;;;5073440;28;20040;-78
2022/08/27 05:16:21;;;;;;;27.63;18.40;;;512.70;2380.80;;;;;;5042396;28;20048;-79
2022/08/27 05:18:49;;;;;;;25.33;18.80;;;512.90;2380.80;;;;;;5034355;28;20033;-79
2022/08/27 05:21:17;;;;;;;28.20;20.48;;;537.70;2406.40;;;;;;5072269;28;20031;-79
2022/08/27 05:23:43;;;;;;;33.45;20.35;;;537.70;2406.40;;;;;;5038104;28;20112;-77
2022/08/27 05:26:09;;;;;;;25.75;18.98;;;512.90;2380.80;;;;;;5039213;28;20016;-81
2022/08/27 05:28:35;;;;;;;35.45;21.55;;;537.70;2406.40;;;;;;5042444;28;20040;-78
2022/08/27 05:31:07;;;;;;;29.10;20.58;;;537.60;2406.40;;;;;;5042289;28;20076;-80
2022/08/27 05:33:34;;;;;;;27.98;17.63;;;537.80;2406.40;;;;;;5038533;28;20029;-79
2022/08/27 05:36:00;;;;;;;26.27;17.30;;;537.90;2406.40;;;;;;5042679;28;20060;-78
2022/08/27 05:38:29;;;;;;;24.92;18.92;;;537.80;2406.40;;;;;;5041590;28;20500;-79
2022/08/27 05:41:10;;;;;;;22.60;17.65;;;537.80;2406.40;;;;;;5041622;28;20033;-79
2022/08/27 05:43:37;;;;;;;26.02;16.17;;;537.80;2406.40;;;;;;5045254;28;20017;-79
2022/08/27 05:46:05;;;;;;;23.92;15.95;;;537.80;2406.40;;;;;;5043766;28;20119;-79
2022/08/27 05:48:34;;;;;;;24.83;16.23;;;537.80;2406.40;;;;;;5042430;28;20044;-80
2022/08/27 05:51:14;;;;;;;29.20;16.13;;;537.80;2406.40;;;;;;5046895;28;20060;-79
2022/08/27 05:53:41;;;;;;;25.35;16.60;;;537.90;2406.40;;;;;;5043077;28;20041;-79
2022/08/27 05:56:18;;;;;;;23.85;14.80;;;538.00;2406.40;;;;;;5043770;28;20029;-76
2022/08/27 06:01:31;;;;;;;27.58;17.73;;;538.40;2406.40;;;;;;5034431;28;20079;-77
2022/08/27 06:03:57;;;;;;;29.90;23.48;;;538.50;2406.40;;;;;;5066501;28;20471;-77
2022/08/27 06:06:23;;;;;;;28.17;19.15;;;538.50;2406.40;;;;;;5034286;28;20025;-78
2022/08/27 06:08:51;;;;;;;23.83;16.15;;;563.30;2432.00;;;;;;5040042;28;20112;-77
2022/08/27 06:11:18;;;;;;;20.27;13.60;;;538.50;2406.40;;;;;;5065730;28;20053;-77
2022/08/27 06:13:45;;;;;;;22.17;12.88;;;538.50;2406.40;;;;;;5073002;28;20052;-80
2022/08/27 06:16:13;;;;;;;17.42;13.10;;;563.30;2432.00;;;;;;5070330;28;20052;-79
2022/08/27 06:18:40;;;;;;;22.48;14.38;;;563.50;2432.00;;;;;;5035699;28;20029;-79
2022/08/27 06:21:07;;;;;;;27.23;15.63;;;563.40;2432.00;;;;;;5070676;28;20091;-77
2022/08/27 06:23:34;;;;;;;22.52;14.52;;;563.40;2432.00;;;;;;5033540;28;20029;-78
2022/08/27 06:26:04;;;;;;;22.02;13.75;;;563.50;2432.00;;;;;;5037347;28;20066;-78
2022/08/27 06:28:30;;;;;;;23.17;12.93;;;563.50;2432.00;;;;;;5067040;28;20065;-79
2022/08/27 06:31:24;;;;;;;22.27;13.45;;;563.80;2432.00;;;;;;5035171;28;20037;-80
2022/08/27 06:33:51;;;;;;;21.25;13.93;;;563.70;2432.00;;;;;;5035793;28;20044;-78
2022/08/27 06:36:20;;;;;;;26.25;12.65;;;563.90;2432.00;;;;;;5037867;28;20049;-78
2022/08/27 06:38:46;;;;;;;20.88;12.50;;;564.00;2432.00;;;;;;5069606;28;20033;-79
2022/08/27 06:41:14;;;;;;;20.23;13.75;;;564.00;2432.00;;;;;;5038461;28;20467;-79
2022/08/27 06:43:42;;;;;;;23.40;13.05;;;563.90;2432.00;;;;;;5035165;28;20029;-79
2022/08/27 06:46:11;;;;;;;27.17;12.60;;;564.00;2432.00;;;;;;5035089;28;20071;-80
2022/08/27 06:48:37;;;;;;;24.85;11.95;;;588.80;2432.00;;;;;;5065578;28;20049;-78
2022/08/27 06:51:08;;;;;;;24.67;12.80;;;589.10;2432.00;;;;;;5074049;28;20036;-79
2022/08/27 06:53:35;;;;;;;28.58;12.32;;;588.90;2432.00;;;;;;5037207;28;20089;-78
2022/08/27 06:56:01;;;;;;;23.30;11.30;;;588.90;2432.00;;;;;;5051055;28;20091;-77
2022/08/27 06:58:27;;;;;;;19.48;11.70;;;589.30;2432.00;;;;;;5051520;28;20037;-78
2022/08/27 07:00:52;;;;;;;26.27;10.80;;;589.30;2432.00;;;;;;5037893;28;20033;-78
2022/08/27 07:03:18;;;;;;;22.73;11.65;;;589.50;2432.00;;;;;;5065337;28;20153;-78
2022/08/27 07:05:44;;;;;;;20.88;12.07;;;589.60;2432.00;;;;;;5033608;28;20029;-78
2022/08/27 07:08:10;;;;;;;23.58;12.10;;;589.60;2432.00;;;;;;5067442;28;20049;-79
2022/08/27 07:10:36;;;;;;;18.83;11.57;;;589.60;2432.00;;;;;;5030882;28;20538;-78
2022/08/27 07:13:02;;;;;;;25.10;11.57;;;614.50;2432.00;;;;;;5035633;28;20021;-79
2022/08/27 07:15:28;;;;;;;16.80;11.80;;;614.40;2432.00;;;;;;5038603;28;20494;-78
2022/08/27 07:17:54;;;;;;;20.75;11.73;;;614.40;2432.00;;;;;;5036885;28;20043;-78
2022/08/27 07:20:21;;;;;;;20.55;12.05;;;614.50;2432.00;;;;;;5067622;28;20036;-83
2022/08/27 07:22:48;;;;;;;23.00;12.68;;;614.60;2432.00;;;;;;5033943;28;20467;-77
2022/08/27 07:25:18;;;;;;;24.40;14.15;;;614.70;2432.00;;;;;;5071276;28;20112;-78
2022/08/27 07:27:45;;;;;;;15.73;11.63;;;614.70;2432.00;;;;;;5039103;28;20044;-78
2022/08/27 07:30:12;;;;;;;21.90;12.43;;;614.80;2432.00;;;;;;5031473;28;20152;-78
2022/08/27 07:32:38;;;;;;;20.88;11.73;;;614.80;2432.00;;;;;;5065836;28;20447;-80
2022/08/27 07:35:08;;;;;;;22.05;12.73;;;614.90;2432.00;;;;;;5035174;28;20042;-79
2022/08/27 07:37:38;;;;;;;30.08;11.98;;;615.00;2432.00;;;;;;5038857;28;20521;-81
2022/08/27 07:40:06;;;;;;;22.38;11.20;;;615.00;2432.00;;;;;;5042511;28;20090;-80
2022/08/27 07:45:16;;;;;;;20.20;11.27;;;615.10;2432.00;;;;;;5049538;28;20040;-82
2022/08/27 07:47:42;;;;;;;24.33;13.00;;;615.30;2432.00;;;;;;5051234;28;20029;-81
2022/08/27 07:50:09;;;;;;;23.40;13.82;;;640.00;2432.00;;;;;;5056289;28;20434;-84
2022/08/27 07:52:34;;;;;;;25.38;14.25;;;640.40;2432.00;;;;;;5052321;28;20044;-82
2022/08/27 07:55:00;;;;;;;22.63;11.88;;;640.20;2432.00;;;;;;5051306;28;20109;-83
2022/08/27 07:57:26;;;;;;;27.70;12.60;;;640.40;2432.00;;;;;;5050511;28;20029;-82
2022/08/27 07:59:52;;;;;;;25.63;12.18;;;640.70;2432.00;;;;;;5052794;28;20025;-82
2022/08/27 08:02:18;;;;;;;25.83;12.27;;;640.90;2432.00;;;;;;5049674;28;20462;-82
2022/08/27 08:04:44;;;;;;;21.48;11.18;;;640.90;2432.00;;;;;;5053995;28;20064;-82
2022/08/27 08:07:10;;;;;;;21.95;11.32;;;665.60;2432.00;;;;;;5050984;28;20029;-81
2022/08/27 08:09:36;;;;;;;20.63;11.80;;;665.70;2432.00;;;;;;5052944;28;20037;-81
2022/08/27 08:12:02;;;;;;;19.83;11.30;;;665.80;2432.00;;;;;;5048243;28;20017;-82
2022/08/27 08:14:30;;;;;;;19.90;10.90;;;666.00;2432.00;;;;;;5073973;28;20022;-81
2022/08/27 08:17:01;;;;;;;18.27;10.88;;;666.20;2432.00;;;;;;5077756;28;20109;-81
2022/08/27 08:19:28;;;;;;;26.85;12.80;;;666.20;2432.00;;;;;;5050868;28;20528;-79
2022/08/27 08:21:54;;;;;;;24.90;11.30;;;;;;;;;;5050052;28;20029;-79
2022/08/27 08:24:20;;;;;;;23.85;11.70;;;;;;;;;;5050235;28;20055;-78
2022/08/27 08:26:46;;;;;;;19.23;11.27;;;;;;;;;;5050514;28;20017;-79
2022/08/27 08:29:12;;;;;;;21.45;11.10;;;691.60;2432.00;;;;;;5050004;28;20028;-79
2022/08/27 08:31:40;;;;;;;20.85;11.35;;;;;;;;;;5048844;28;20032;-79
2022/08/27 08:34:06;;;;;;;32.05;10.88;;;;;;;;;;5049402;28;20090;-79
2022/08/27 08:36:32;;;;;;;17.70;9.50;;;691.70;2432.00;;;;;;5052585;28;20017;-82
2022/08/27 08:38:58;;;;;;;20.73;9.80;;;691.80;2432.00;;;;;;5048291;28;20528;-81
2022/08/27 08:41:47;;;;;;;22.00;9.50;;;691.70;2432.00;;;;;;5052582;28;20466;-80
2022/08/27 08:44:19;;;;;;;15.95;10.10;;;;;;;;;;5048010;28;20025;-80
2022/08/27 08:46:50;;;;;;;20.15;11.00;;;;;;;;;;5047353;28;20022;-82
2022/08/27 08:49:28;;;;;;;26.35;12.85;;;;;;;;;;5046165;28;20044;-78
2022/08/27 08:51:57;;;;;;;24.35;11.10;;;;;;;;;;5050576;28;20467;-80
2022/08/27 08:54:25;;;;;;;18.52;9.93;;;;;;;;;;5050455;28;20075;-79
2022/08/27 08:57:11;;;;;;;20.25;10.35;;;;;;;;;;5048404;28;20025;-80
2022/08/27 08:59:46;;;;;;;20.40;10.52;;;717.30;2432.00;;;;;;5041439;28;20071;-78
2022/08/27 09:02:14;;;;;;;21.27;9.50;;;;;;;;;;5040308;28;20024;-81
2022/08/27 09:04:43;;;;;;;26.15;11.05;;;;;;;;;;5041911;28;20025;-79
2022/08/27 09:07:15;;;;;;;25.33;10.70;;;;;;;;;;5038618;28;20033;-80
2022/08/27 09:09:41;;;;;;;;;;;;;;;;;;5040761;28;20044;-79
2022/08/27 09:12:18;;;;;;;22.60;12.07;;;;;;;;;;5038836;28;19909;-79
2022/08/27 09:14:53;;;;;;;15.02;8.73;;;;;;;;;;5036094;28;20099;-79
2022/08/27 09:17:19;;;;;;;24.23;9.18;;;;;;;;;;5047836;28;20021;-80
2022/08/27 09:19:45;;;;;;;17.20;9.60;;;;;;;;;;5049053;28;20581;-79
2022/08/27 09:22:11;;;;;;;18.42;8.07;;;;;;;;;;5050770;28;20482;-81
2022/08/27 09:24:56;;;;;;;17.33;9.23;;;;;;;;;;5050706;28;20070;-80
2022/08/27 09:27:22;;;;;;;19.45;9.35;;;;;;;;;;5047318;28;20076;-81
2022/08/27 09:29:51;;;;;;;22.45;8.70;;;;;;;;;;5044950;28;20103;-82
2022/08/27 09:32:21;;;;;;;23.00;9.70;;;;;;;;;;5046965;28;20082;-81
2022/08/27 09:34:47;;;;;;;21.65;9.10;;;;;;;;;;5049204;28;20084;-83
2022/08/27 09:37:16;;;;;;;25.73;10.27;;;;;;;;;;5043983;28;20025;-83
2022/08/27 09:39:47;;;;;;;18.05;9.30;;;;;;;;;;5050945;28;20032;-85
2022/08/27 09:42:26;;;;;;;16.20;8.80;;;;;;;;;;5043102;28;20040;-84
2022/08/27 09:44:54;;;;;;;20.67;9.63;;;;;;;;;;5041221;28;20029;-83
2022/08/27 09:47:21;;;;;;;18.58;9.50;;;;;;;;;;5041667;28;20029;-83
2022/08/27 09:49:47;;;;;;;19.40;8.85;;;;;;;;;;5041623;28;20064;-82
2022/08/27 09:52:45;;;;;;;21.38;12.45;;;;;;;;;;5047497;28;20056;-84
2022/08/27 09:55:13;;;;;;;18.85;9.60;;;;;;;;;;5027080;28;20084;-83
2022/08/27 09:57:40;;;;;;;20.80;7.82;;;;;;;;;;5047662;28;20522;-83
2022/08/27 10:00:08;;;;;;;14.68;8.85;;;;;;;;;;5044511;28;20113;-84
2022/08/27 10:02:34;;;;;;;29.88;10.25;;;;;;;;;;5049696;28;20116;-85
2022/08/27 10:05:02;;;;;;;19.13;11.38;;;;;;;;;;5045812;28;20052;-84
2022/08/27 10:07:42;;;;;;;14.77;7.55;;;;;;;;;;5034355;28;20021;-84
2022/08/27 10:10:09;;;;;;;15.23;9.27;;;;;;;;;;5042679;28;20033;-84
2022/08/27 10:12:35;;;;;;;21.77;9.40;;;;;;;;;;5045943;28;20071;-84
2022/08/27 10:15:03;;;;;;;20.30;10.60;;;;;;;;;;5048964;28;20108;-84
2022/08/27 10:17:32;;;;;;;22.52;10.25;;;;;;;;;;5048659;28;20035;-84
2022/08/27 10:20:08;;;;;;;20.77;9.75;;;;;;;;;;5049457;28;20477;-82
2022/08/27 10:22:51;;;;;;;16.30;7.05;;;;;;;;;;5047577;28;20029;-82
2022/08/27 10:25:20;;;;;;;17.05;7.60;;;;;;;;;;5039723;28;20022;-84
2022/08/27 10:28:14;;;;;;;16.08;7.68;;;819.20;2355.20;;;;;;5038366;28;20501;-85
2022/08/27 10:31:01;;;;;;;17.25;9.05;;;819.20;2304.00;;;;;;5038495;28;20491;-83
2022/08/27 10:34:06;;;;;;;17.75;7.85;;;819.60;2329.60;;;;;;5045868;28;20029;-83
2022/08/27 10:36:57;;;;;;;15.07;6.82;;;819.70;2329.60;;;;;;5048371;28;20032;-86
2022/08/27 10:39:53;;;;;;;16.17;7.43;;;819.60;2201.60;;;;;;5042840;28;20028;-85
2022/08/27 10:42:25;;;;;;;18.17;10.07;;;819.90;2304.00;;;;;;5050179;28;20025;-85
2022/08/27 10:44:57;;;;;;;21.42;8.10;;;;;;;;;;5033376;28;20041;-83
2022/08/27 10:47:30;;;;;;;13.40;7.07;;;;;;;;;;5041899;28;20040;-83
2022/08/27 10:50:08;;;;;;;15.88;6.80;;;;;;;;;;5047548;28;20029;-82
2022/08/27 10:52:41;;;;;;;18.20;5.50;;;;;;;;;;5051896;28;20050;-82
2022/08/27 10:55:22;;;;;;;16.60;5.85;;;;;;;;;;5042387;28;20037;-83
2022/08/27 10:57:51;;;;;;;13.80;6.07;;;;;;;;;;5040970;28;20071;-84
2022/08/27 11:00:22;;;;;;;18.77;6.10;;;;;;;;;;5043131;28;20527;-83
2022/08/27 11:02:54;;;;;;;20.50;6.93;;;;;;;;;;5052047;28;20053;-86
2022/08/27 11:05:29;;;;;;;23.85;9.15;;;;;;;;;;5049329;28;20065;-84
2022/08/27 11:07:58;;;;;;;26.15;9.15;;;;;;;;;;5043644;28;20037;-83
2022/08/27 11:10:38;;;;;;;18.67;7.93;;;870.40;1971.20;;;;;;5035038;28;20044;-83
2022/08/27 11:13:34;;;;;;;23.50;7.45;;;870.40;1996.80;;;;;;5037021;28;20041;-84
2022/08/27 11:16:13;;;;;;;15.90;6.10;;;870.70;1996.80;;;;;;5035402;28;20414;-83
2022/08/27 11:18:45;;;;;;;17.80;6.75;;;;;;;;;;5039486;28;20029;-83
2022/08/27 11:21:19;;;;;;;13.70;6.65;;;;;;;;;;5043229;28;20032;-82
2022/08/27 11:24:22;;;;;;;16.38;5.97;;;871.10;1920.00;;;;;;5045433;28;20120;-83
2022/08/27 11:26:51;;;;;;;18.85;6.32;;;;;;;;;;5047477;28;20031;-82
2022/08/27 11:29:31;;;;;;;22.20;6.45;;;;;;;;;;5064278;28;20495;-84
2022/08/27 11:32:05;;;;;;;16.08;6.40;;;;;;;;;;5046066;28;20482;-81
2022/08/27 11:34:58;;;;;;;15.50;5.93;;;;;;;;;;5063275;28;20040;-81
2022/08/27 11:37:37;;;;;;;11.05;5.75;;;;;;;;;;5057242;28;20010;-80
2022/08/27 11:40:03;;;;;;;16.38;7.03;;;;;;;;;;5064392;28;20025;-81
2022/08/27 11:42:41;;;;;;;18.00;7.25;;;;;;;;;;5064452;28;20036;-80
2022/08/27 11:45:19;;;;;;;15.00;7.20;;;;;;;;;;5050312;28;20024;-82
2022/08/27 11:47:53;;;;;;;15.82;6.47;;;;;;;;;;5044754;28;20039;-82
2022/08/27 11:50:20;;;;;;;23.27;7.65;;;;;;;;;;5039665;28;20127;-84
2022/08/27 11:53:06;;;;;;;22.75;7.25;;;;;;;;;;5038170;28;20121;-83
2022/08/27 11:55:37;;;;;;;20.25;6.38;;;;;;;;;;5037891;28;20041;-81
2022/08/27 11:58:09;;;;;;;14.73;7.83;;;;;;;;;;5044896;28;20685;-83
2022/08/27 12:00:39;;;;;;;12.77;6.53;;;;;;;;;;5039186;28;20607;-82
2022/08/27 12:03:08;;;;;;;11.02;7.00;;;;;;;;;;5045971;28;20028;-82
2022/08/27 12:05:36;;;;;;;18.85;7.40;;;;;;;;;;5038276;28;20026;-84
2022/08/27 12:08:35;;;;;;;18.08;8.02;;;921.70;1740.80;;;;;;5037784;28;20028;-82
2022/08/27 12:11:19;;;;;;;13.23;8.88;;;921.80;1740.80;;;;;;5021490;28;20041;-82
2022/08/27 12:13:51;;;;;;;16.27;8.30;;;922.00;1766.40;;;;;;5038061;28;20158;-82
2022/08/27 12:16:17;;;;;;;15.82;8.10;;;922.00;1740.80;;;;;;5041521;28;20025;-81
2022/08/27 12:19:16;;;;;;;20.90;7.97;;;922.10;1792.00;;;;;;5038371;28;20040;-82
2022/08/27 12:22:21;;;;;;;13.82;6.18;;;896.90;1664.00;;;;;;5038969;28;20115;-80
2022/08/27 12:24:56;;;;;;;16.63;7.15;;;896.80;1740.80;;;;;;5047316;28;20025;-82
2022/08/27 12:27:27;;;;;;;18.23;7.20;;;896.90;1740.80;;;;;;5039989;28;20034;-81
2022/08/27 12:29:52;;;;;;;12.68;6.72;;;921.60;1715.20;;;;;;5046578;28;20490;-81
2022/08/27 12:32:37;;;;;;;21.70;7.22;;;922.40;1689.60;;;;;;5049022;28;20056;-83
2022/08/27 12:35:25;;;;;;;14.90;6.22;;;896.90;1638.40;;;;;;5039687;28;20045;-82
2022/08/27 12:38:18;;;;;;;15.15;5.88;;;921.80;1664.00;;;;;;5075179;28;20040;-82
2022/08/27 12:40:53;;;;;;;15.85;6.53;;;922.00;1689.60;;;;;;5043927;28;20108;-82
2022/08/27 12:43:21;;;;;;;17.13;6.78;;;922.00;1689.60;;;;;;5075457;28;20021;-83
2022/08/27 12:46:05;;;;;;;14.68;6.18;;;921.90;1638.40;;;;;;5041923;28;21285;-82
2022/08/27 12:48:42;;;;;;;15.90;6.05;;;896.70;1638.40;;;;;;5077012;28;20410;-83
2022/08/27 12:51:17;;;;;;;15.50;6.07;;;896.80;1638.40;;;;;;5045732;28;20107;-83
2022/08/27 12:54:08;;;;;;;15.38;6.53;;;896.80;1715.20;;;;;;5039929;28;20037;-83
2022/08/27 12:56:55;;;;;;;16.63;6.22;;;896.60;1689.60;;;;;;5041688;28;20055;-81
2022/08/27 12:59:20;;;;;;;14.73;7.78;;;896.80;1715.20;;;;;;5044384;28;20433;-82
2022/08/27 13:02:12;;;;;;;18.83;8.18;;;921.60;1740.80;;;;;;5043100;28;20083;-82